createdAt,value
2019-04-01T00:00:07.035Z,1029.0534
2019-04-01T00:00:18.891Z,1029.112
2019-04-01T00:00:30.757Z,1029.0811
2019-04-01T00:00:42.604Z,1029.0679
2019-04-01T00:00:54.439Z,1029.0747
2019-04-01T00:01:07.606Z,1029.1235
2019-04-01T00:01:19.123Z,1029.0891
2019-04-01T00:01:30.977Z,1029.0681
2019-04-01T00:01:42.826Z,1029.1022
2019-04-01T00:01:54.692Z,1029.0777
2019-04-01T00:02:06.566Z,1029.0581
2019-04-01T00:02:18.397Z,1029.0697
2019-04-01T00:02:30.245Z,1029.0517
2019-04-01T00:02:42.086Z,1029.0173
2019-04-01T00:02:53.932Z,1029.009
2019-04-01T00:03:05.775Z,1029.0156
2019-04-01T00:03:17.620Z,1028.9926
2019-04-01T00:03:29.466Z,1029.0123
2019-04-01T00:03:41.302Z,1029.0122
2019-04-01T00:03:53.143Z,1029.0104
2019-04-01T00:04:04.990Z,1029.035
2019-04-01T00:04:16.833Z,1029.0367
2019-04-01T00:04:28.719Z,1029.0023
2019-04-01T00:04:40.550Z,1029.0413
2019-04-01T00:04:52.407Z,1029.0347
2019-04-01T00:05:04.263Z,1029.0235
2019-04-01T00:05:16.108Z,1029.0168
2019-04-01T00:05:27.942Z,1029.0118
2019-04-01T00:05:39.793Z,1029.0379
2019-04-01T00:05:51.643Z,1029.0428
2019-04-01T00:06:03.480Z,1029.0655
2019-04-01T00:06:15.324Z,1029.0866
2019-04-01T00:06:27.180Z,1029.0802
2019-04-01T00:06:39.042Z,1029.0687
2019-04-01T00:06:50.937Z,1029.0766
2019-04-01T00:07:02.784Z,1029.085
2019-04-01T00:07:14.651Z,1029.0783
2019-04-01T00:07:26.514Z,1029.062
2019-04-01T00:07:38.366Z,1029.0311
2019-04-01T00:07:50.209Z,1029.0605
2019-04-01T00:08:02.052Z,1029.0263
2019-04-01T00:08:13.889Z,1029.088
2019-04-01T00:08:25.735Z,1029.0832
2019-04-01T00:08:37.586Z,1029.0863
2019-04-01T00:08:49.427Z,1029.0423
2019-04-01T00:09:01.265Z,1029.0535
2019-04-01T00:09:13.104Z,1029.0552
2019-04-01T00:09:24.948Z,1029.0327
2019-04-01T00:09:36.810Z,1029.0324
2019-04-01T00:09:48.643Z,1029.0324
2019-04-01T00:10:00.512Z,1029.0682
2019-04-01T00:10:12.347Z,1029.0422
2019-04-01T00:10:24.181Z,1029.0323
2019-04-01T00:10:36.025Z,1029.0194
2019-04-01T00:10:47.865Z,1029.0211
2019-04-01T00:10:59.714Z,1029.0014
2019-04-01T00:11:11.572Z,1028.9833
2019-04-01T00:11:23.424Z,1028.9932
2019-04-01T00:11:35.262Z,1029.0257
2019-04-01T00:11:47.099Z,1028.998
2019-04-01T00:11:58.971Z,1029.0144
2019-04-01T00:12:10.818Z,1029.024
2019-04-01T00:12:22.689Z,1029.0045
2019-04-01T00:12:34.529Z,1029.0549
2019-04-01T00:12:46.377Z,1029.0319
2019-04-01T00:12:58.216Z,1029.0418
2019-04-01T00:13:10.055Z,1029.0285
2019-04-01T00:13:21.891Z,1029.0272
2019-04-01T00:13:33.718Z,1029.0563
2019-04-01T00:13:45.669Z,1029.0269
2019-04-01T00:13:57.505Z,1029.0417
2019-04-01T00:14:09.348Z,1029.0383
2019-04-01T00:14:21.188Z,1029.0628
2019-04-01T00:14:33.041Z,1029.048
2019-04-01T00:14:44.895Z,1029.0334
2019-04-01T00:14:56.736Z,1029.0676
2019-04-01T00:15:08.575Z,1029.0804
2019-04-01T00:15:20.422Z,1029.074
2019-04-01T00:15:32.279Z,1029.0903
2019-04-01T00:15:44.120Z,1029.0626
2019-04-01T00:15:55.945Z,1029.0479
2019-04-01T00:16:07.791Z,1029.0073
2019-04-01T00:16:19.624Z,1029.035
2019-04-01T00:16:31.464Z,1029.035
2019-04-01T00:16:43.305Z,1029.066
2019-04-01T00:16:55.151Z,1029.0432
2019-04-01T00:17:06.985Z,1029.0545
2019-04-01T00:17:18.825Z,1029.074
2019-04-01T00:17:30.673Z,1028.9975
2019-04-01T00:17:42.521Z,1029.0155
2019-04-01T00:17:54.373Z,1029.0318
2019-04-01T00:18:06.233Z,1029.0187
2019-04-01T00:18:18.074Z,1028.996
2019-04-01T00:18:29.926Z,1028.996
2019-04-01T00:18:41.758Z,1028.9814
2019-04-01T00:19:02.695Z,1029.0107
2019-04-01T00:19:06.438Z,1028.9714
2019-04-01T00:19:18.287Z,1028.9829
2019-04-01T00:19:30.108Z,1029.0238
2019-04-01T00:19:41.948Z,1028.9421
2019-04-01T00:19:53.792Z,1028.9798
2019-04-01T00:20:05.643Z,1028.9912
2019-04-01T00:20:17.481Z,1028.965
2019-04-01T00:20:29.328Z,1029.0155
2019-04-01T00:20:41.171Z,1029.0269
2019-04-01T00:20:53.014Z,1028.9992
2019-04-01T00:21:04.854Z,1028.9976
2019-04-01T00:21:16.697Z,1028.9909
2019-04-01T00:21:28.546Z,1029.0333
2019-04-01T00:21:40.386Z,1028.9764
2019-04-01T00:21:52.230Z,1028.981
2019-04-01T00:22:04.091Z,1028.9553
2019-04-01T00:22:15.935Z,1028.9925
2019-04-01T00:22:27.771Z,1029.0073
2019-04-01T00:22:39.710Z,1029.0007
2019-04-01T00:22:51.494Z,1029.0007
2019-04-01T00:23:03.338Z,1028.9747
2019-04-01T00:23:15.142Z,1028.9793
2019-04-01T00:23:27.009Z,1028.9681
2019-04-01T00:23:38.859Z,1029.0169
2019-04-01T00:23:50.692Z,1028.9648
2019-04-01T00:24:02.542Z,1028.9793
2019-04-01T00:24:14.388Z,1028.942
2019-04-01T00:24:26.227Z,1028.963
2019-04-01T00:24:38.072Z,1028.973
2019-04-01T00:24:49.920Z,1028.9565
2019-04-01T00:25:01.760Z,1028.9387
2019-04-01T00:25:13.607Z,1028.9711
2019-04-01T00:25:25.436Z,1028.9875
2019-04-01T00:25:37.284Z,1028.9465
2019-04-01T00:25:49.116Z,1028.9776
2019-04-01T00:26:00.969Z,1028.9481
2019-04-01T00:26:12.802Z,1028.9483
2019-04-01T00:26:24.654Z,1028.9727
2019-04-01T00:26:36.502Z,1028.9304
2019-04-01T00:26:48.350Z,1029.0068
2019-04-01T00:27:00.196Z,1028.953
2019-04-01T00:27:12.035Z,1028.9351
2019-04-01T00:27:23.869Z,1029.0034
2019-04-01T00:27:35.721Z,1028.9367
2019-04-01T00:27:47.555Z,1028.8912
2019-04-01T00:27:59.391Z,1028.9758
2019-04-01T00:28:11.224Z,1028.9578
2019-04-01T00:28:23.071Z,1028.9838
2019-04-01T00:28:34.949Z,1029.0246
2019-04-01T00:28:46.785Z,1028.966
2019-04-01T00:28:58.634Z,1028.9904
2019-04-01T00:29:10.472Z,1028.9676
2019-04-01T00:29:22.342Z,1028.9774
2019-04-01T00:29:34.178Z,1029.0034
2019-04-01T00:29:46.027Z,1029.0113
2019-04-01T00:29:57.899Z,1028.9871
2019-04-01T00:30:09.699Z,1029.0081
2019-04-01T00:30:21.537Z,1029.057
2019-04-01T00:30:33.391Z,1029.0439
2019-04-01T00:30:45.232Z,1029.0166
2019-04-01T00:30:57.075Z,1028.9531
2019-04-01T00:31:08.916Z,1029.0148
2019-04-01T00:31:20.743Z,1028.9953
2019-04-01T00:31:32.594Z,1029.01
2019-04-01T00:31:44.434Z,1029.0166
2019-04-01T00:31:56.285Z,1028.9661
2019-04-01T00:32:08.140Z,1029.0394
2019-04-01T00:32:19.990Z,1028.9985
2019-04-01T00:32:32.860Z,1029.0198
2019-04-01T00:32:44.717Z,1028.9953
2019-04-01T00:32:56.570Z,1028.9237
2019-04-01T00:33:08.414Z,1028.9304
2019-04-01T00:33:20.258Z,1028.9384
2019-04-01T00:33:32.110Z,1028.9548
2019-04-01T00:33:43.966Z,1028.9124
2019-04-01T00:33:55.815Z,1028.9353
2019-04-01T00:34:07.661Z,1028.9484
2019-04-01T00:34:19.506Z,1028.8946
2019-04-01T00:34:31.359Z,1028.9337
2019-04-01T00:34:43.188Z,1028.9516
2019-04-01T00:34:55.048Z,1028.9484
2019-04-01T00:35:06.928Z,1028.9273
2019-04-01T00:35:18.762Z,1028.914
2019-04-01T00:35:30.604Z,1028.8801
2019-04-01T00:35:42.445Z,1028.9158
2019-04-01T00:35:54.297Z,1028.9467
2019-04-01T00:36:06.139Z,1028.9239
2019-04-01T00:36:17.981Z,1028.9287
2019-04-01T00:36:29.851Z,1028.9532
2019-04-01T00:36:41.687Z,1028.9289
2019-04-01T00:36:53.520Z,1028.9434
2019-04-01T00:37:05.370Z,1028.9256
2019-04-01T00:37:17.186Z,1028.9273
2019-04-01T00:37:29.018Z,1028.9368
2019-04-01T00:37:40.861Z,1028.9483
2019-04-01T00:37:52.710Z,1028.9191
2019-04-01T00:38:04.549Z,1028.9321
2019-04-01T00:38:16.389Z,1028.9759
2019-04-01T00:38:28.239Z,1028.9483
2019-04-01T00:38:40.086Z,1028.9437
2019-04-01T00:38:51.935Z,1028.9206
2019-04-01T00:39:03.776Z,1028.9289
2019-04-01T00:39:15.742Z,1028.9093
2019-04-01T00:39:27.562Z,1028.9144
2019-04-01T00:39:39.390Z,1028.8916
2019-04-01T00:39:51.234Z,1028.9078
2019-04-01T00:40:03.079Z,1028.9108
2019-04-01T00:40:14.925Z,1028.9449
2019-04-01T00:40:26.767Z,1028.9045
2019-04-01T00:40:38.616Z,1028.9223
2019-04-01T00:40:50.460Z,1028.9498
2019-04-01T00:41:02.299Z,1028.9174
2019-04-01T00:41:14.147Z,1028.9384
2019-04-01T00:41:25.990Z,1028.8996
2019-04-01T00:41:38.821Z,1028.9158
2019-04-01T00:41:50.660Z,1028.8928
2019-04-01T00:42:02.529Z,1028.9156
2019-04-01T00:42:14.343Z,1028.9124
2019-04-01T00:42:26.197Z,1028.9792
2019-04-01T00:42:38.028Z,1028.9498
2019-04-01T00:42:49.893Z,1028.958
2019-04-01T00:43:01.818Z,1028.9482
2019-04-01T00:43:13.581Z,1028.9708
2019-04-01T00:43:25.429Z,1028.945
2019-04-01T00:43:37.275Z,1028.9938
2019-04-01T00:43:49.127Z,1028.9481
2019-04-01T00:44:00.977Z,1028.9759
2019-04-01T00:44:12.842Z,1028.945
2019-04-01T00:44:24.682Z,1028.9854
2019-04-01T00:44:40.049Z,1028.9775
2019-04-01T00:44:49.352Z,1028.9401
2019-04-01T00:45:01.202Z,1028.9515
2019-04-01T00:45:13.065Z,1028.9448
2019-04-01T00:45:24.905Z,1028.9562
2019-04-01T00:45:36.779Z,1028.9549
2019-04-01T00:45:49.615Z,1028.9969
2019-04-01T00:46:01.444Z,1028.9368
2019-04-01T00:46:13.291Z,1028.971
2019-04-01T00:46:25.139Z,1028.9174
2019-04-01T00:46:37.011Z,1028.9094
2019-04-01T00:46:48.851Z,1028.9387
2019-04-01T00:47:00.698Z,1028.9254
2019-04-01T00:47:12.546Z,1028.9597
2019-04-01T00:47:24.383Z,1028.9434
2019-04-01T00:47:36.229Z,1028.9354
2019-04-01T00:47:48.066Z,1028.8978
2019-04-01T00:47:59.910Z,1028.9306
2019-04-01T00:48:11.753Z,1028.9321
2019-04-01T00:48:23.588Z,1028.9418
2019-04-01T00:48:35.434Z,1028.8916
2019-04-01T00:48:47.281Z,1028.8867
2019-04-01T00:48:59.125Z,1028.8996
2019-04-01T00:49:10.967Z,1028.8963
2019-04-01T00:49:22.813Z,1028.8948
2019-04-01T00:49:34.659Z,1028.9125
2019-04-01T00:49:46.492Z,1028.9323
2019-04-01T00:49:58.333Z,1028.9176
2019-04-01T00:50:10.222Z,1028.89
2019-04-01T00:50:22.072Z,1028.8736
2019-04-01T00:50:33.912Z,1028.8933
2019-04-01T00:50:45.762Z,1028.9014
2019-04-01T00:50:57.595Z,1028.8704
2019-04-01T00:51:09.447Z,1028.8964
2019-04-01T00:51:21.285Z,1028.882
2019-04-01T00:51:33.116Z,1028.9211
2019-04-01T00:51:44.982Z,1028.9208
2019-04-01T00:51:56.827Z,1028.9487
2019-04-01T00:52:08.671Z,1028.9063
2019-04-01T00:52:20.510Z,1028.895
2019-04-01T00:52:32.340Z,1028.9193
2019-04-01T00:52:44.178Z,1028.9129
2019-04-01T00:52:56.024Z,1028.9309
2019-04-01T00:53:07.864Z,1028.9178
2019-04-01T00:53:19.711Z,1028.8771
2019-04-01T00:53:31.552Z,1028.8675
2019-04-01T00:53:43.388Z,1028.8852
2019-04-01T00:53:55.241Z,1028.8933
2019-04-01T00:54:07.073Z,1028.9211
2019-04-01T00:54:18.931Z,1028.9
2019-04-01T00:54:30.796Z,1028.8707
2019-04-01T00:54:42.632Z,1028.9
2019-04-01T00:54:54.473Z,1028.8789
2019-04-01T00:55:06.351Z,1028.8869
2019-04-01T00:55:18.187Z,1028.8691
2019-04-01T00:55:30.053Z,1028.8854
2019-04-01T00:55:41.892Z,1028.8708
2019-04-01T00:55:53.745Z,1028.8546
2019-04-01T00:56:05.583Z,1028.8984
2019-04-01T00:56:17.443Z,1028.9067
2019-04-01T00:56:29.288Z,1028.9049
2019-04-01T00:56:41.130Z,1028.91
2019-04-01T00:56:52.970Z,1028.9133
2019-04-01T00:57:04.801Z,1028.9016
2019-04-01T00:57:16.646Z,1028.9082
2019-04-01T00:57:28.488Z,1028.8886
2019-04-01T00:57:40.308Z,1028.9051
2019-04-01T00:57:52.139Z,1028.8984
2019-04-01T00:58:03.986Z,1028.9066
2019-04-01T00:58:15.825Z,1028.9149
2019-04-01T00:58:30.340Z,1028.9359
2019-04-01T00:58:40.507Z,1028.9311
2019-04-01T00:58:52.346Z,1028.9215
2019-04-01T00:59:04.193Z,1028.915
2019-04-01T00:59:16.025Z,1028.9198
2019-04-01T00:59:27.869Z,1028.9506
2019-04-01T00:59:39.714Z,1028.9068
2019-04-01T00:59:51.559Z,1028.9475
2019-04-01T01:00:03.397Z,1028.8972
2019-04-01T01:00:15.233Z,1028.8823
2019-04-01T01:00:27.075Z,1028.9556
2019-04-01T01:00:38.897Z,1028.9279
2019-04-01T01:00:50.762Z,1028.8824
2019-04-01T01:01:02.609Z,1028.9295
2019-04-01T01:01:14.463Z,1028.8906
2019-04-01T01:01:26.285Z,1028.9213
2019-04-01T01:01:38.126Z,1028.8939
2019-04-01T01:01:49.963Z,1028.8499
2019-04-01T01:02:01.795Z,1028.8547
2019-04-01T01:02:13.642Z,1028.8807
2019-04-01T01:02:25.477Z,1028.8792
2019-04-01T01:02:37.306Z,1028.8142
2019-04-01T01:02:49.281Z,1028.8647
2019-04-01T01:03:01.123Z,1028.8679
2019-04-01T01:03:12.964Z,1028.8419
2019-04-01T01:03:24.805Z,1028.876
2019-04-01T01:03:36.646Z,1028.876
2019-04-01T01:03:48.498Z,1028.8713
2019-04-01T01:04:00.344Z,1028.8695
2019-04-01T01:04:12.191Z,1028.8533
2019-04-01T01:04:24.037Z,1028.8288
2019-04-01T01:04:35.893Z,1028.8238
2019-04-01T01:04:47.731Z,1028.8712
2019-04-01T01:04:59.564Z,1028.8793
2019-04-01T01:05:11.408Z,1028.8728
2019-04-01T01:05:23.263Z,1028.8939
2019-04-01T01:05:35.094Z,1028.8924
2019-04-01T01:05:46.923Z,1028.876
2019-04-01T01:05:58.758Z,1028.8615
2019-04-01T01:06:10.602Z,1028.8939
2019-04-01T01:06:22.439Z,1028.8891
2019-04-01T01:06:34.286Z,1028.876
2019-04-01T01:06:46.133Z,1028.8857
2019-04-01T01:06:57.979Z,1028.8907
2019-04-01T01:07:09.824Z,1028.8612
2019-04-01T01:07:21.671Z,1028.8695
2019-04-01T01:07:33.513Z,1028.9185
2019-04-01T01:07:45.353Z,1028.9005
2019-04-01T01:07:57.226Z,1028.8891
2019-04-01T01:08:09.062Z,1028.9038
2019-04-01T01:08:20.906Z,1028.9184
2019-04-01T01:08:32.760Z,1028.9348
2019-04-01T01:08:44.605Z,1028.8679
2019-04-01T01:08:56.454Z,1028.8776
2019-04-01T01:09:08.305Z,1028.8857
2019-04-01T01:09:20.143Z,1028.9233
2019-04-01T01:09:31.985Z,1028.8776
2019-04-01T01:09:43.838Z,1028.8792
2019-04-01T01:09:55.682Z,1028.9217
2019-04-01T01:10:07.532Z,1028.889
2019-04-01T01:10:19.385Z,1028.9184
2019-04-01T01:10:31.249Z,1028.9086
2019-04-01T01:10:43.089Z,1028.9525
2019-04-01T01:10:54.940Z,1028.9229
2019-04-01T01:11:06.787Z,1028.8742
2019-04-01T01:11:18.636Z,1028.9036
2019-04-01T01:11:30.509Z,1028.9345
2019-04-01T01:11:42.360Z,1028.941
2019-04-01T01:11:54.198Z,1028.9051
2019-04-01T01:12:06.040Z,1028.8759
2019-04-01T01:12:17.888Z,1028.941
2019-04-01T01:12:29.752Z,1028.9311
2019-04-01T01:12:41.600Z,1028.9085
2019-04-01T01:12:53.449Z,1028.9345
2019-04-01T01:13:05.276Z,1028.9263
2019-04-01T01:13:17.120Z,1028.8906
2019-04-01T01:13:28.952Z,1028.9034
2019-04-01T01:13:40.818Z,1028.936
2019-04-01T01:13:52.669Z,1028.9425
2019-04-01T01:14:04.517Z,1028.9328
2019-04-01T01:14:16.356Z,1028.9147
2019-04-01T01:14:28.208Z,1028.9117
2019-04-01T01:14:40.053Z,1028.9198
2019-04-01T01:14:51.896Z,1028.9034
2019-04-01T01:15:03.734Z,1028.9051
2019-04-01T01:15:15.579Z,1028.936
2019-04-01T01:15:27.425Z,1028.9084
2019-04-01T01:15:39.262Z,1028.8792
2019-04-01T01:15:51.095Z,1028.8823
2019-04-01T01:16:02.973Z,1028.936
2019-04-01T01:16:14.813Z,1028.9067
2019-04-01T01:16:26.657Z,1028.9277
2019-04-01T01:16:38.492Z,1028.9083
2019-04-01T01:16:50.345Z,1028.9407
2019-04-01T01:17:02.186Z,1028.9359
2019-04-01T01:17:14.025Z,1028.9114
2019-04-01T01:17:25.880Z,1028.91
2019-04-01T01:17:37.729Z,1028.9279
2019-04-01T01:17:49.578Z,1028.91
2019-04-01T01:18:01.446Z,1028.9245
2019-04-01T01:18:13.292Z,1028.9423
2019-04-01T01:18:25.144Z,1028.9147
2019-04-01T01:18:37.012Z,1028.9278
2019-04-01T01:18:48.861Z,1028.9326
2019-04-01T01:19:00.709Z,1028.918
2019-04-01T01:19:12.561Z,1028.8887
2019-04-01T01:19:24.409Z,1028.9229
2019-04-01T01:19:37.234Z,1028.9278
2019-04-01T01:19:49.080Z,1028.9165
2019-04-01T01:20:00.916Z,1028.887
2019-04-01T01:20:12.751Z,1028.8839
2019-04-01T01:20:24.594Z,1028.9084
2019-04-01T01:20:36.434Z,1028.9212
2019-04-01T01:20:48.275Z,1028.9067
2019-04-01T01:21:00.122Z,1028.9051
2019-04-01T01:21:11.965Z,1028.9262
2019-04-01T01:21:23.957Z,1028.9051
2019-04-01T01:21:35.799Z,1028.8937
2019-04-01T01:21:47.706Z,1028.9165
2019-04-01T01:21:59.552Z,1028.9393
2019-04-01T01:22:11.385Z,1028.957
2019-04-01T01:22:23.236Z,1028.936
2019-04-01T01:22:35.079Z,1028.9198
2019-04-01T01:22:46.919Z,1028.9328
2019-04-01T01:22:58.767Z,1028.9116
2019-04-01T01:23:10.596Z,1028.9149
2019-04-01T01:23:22.449Z,1028.8792
2019-04-01T01:23:34.281Z,1028.8675
2019-04-01T01:23:46.128Z,1028.9261
2019-04-01T01:23:57.988Z,1028.9311
2019-04-01T01:24:09.836Z,1028.923
2019-04-01T01:24:21.681Z,1028.8758
2019-04-01T01:24:33.514Z,1028.8723
2019-04-01T01:24:45.352Z,1028.892
2019-04-01T01:24:57.200Z,1028.9165
2019-04-01T01:25:09.063Z,1028.9034
2019-04-01T01:25:20.906Z,1028.9083
2019-04-01T01:25:32.750Z,1028.8837
2019-04-01T01:25:44.684Z,1028.8839
2019-04-01T01:25:56.431Z,1028.8887
2019-04-01T01:26:08.277Z,1028.9067
2019-04-01T01:26:20.112Z,1028.905
2019-04-01T01:26:31.986Z,1028.905
2019-04-01T01:26:43.822Z,1028.8918
2019-04-01T01:26:55.665Z,1028.9213
2019-04-01T01:27:07.514Z,1028.9
2019-04-01T01:27:19.364Z,1028.8969
2019-04-01T01:27:31.210Z,1028.8804
2019-04-01T01:27:43.057Z,1028.8887
2019-04-01T01:27:54.897Z,1028.9229
2019-04-01T01:28:06.732Z,1028.8951
2019-04-01T01:28:18.565Z,1028.9245
2019-04-01T01:28:30.401Z,1028.9179
2019-04-01T01:28:42.245Z,1028.9097
2019-04-01T01:28:54.088Z,1028.8741
2019-04-01T01:29:05.938Z,1028.9147
2019-04-01T01:29:17.775Z,1028.8692
2019-04-01T01:29:29.625Z,1028.9116
2019-04-01T01:29:41.481Z,1028.8725
2019-04-01T01:29:53.318Z,1028.8854
2019-04-01T01:30:05.219Z,1028.8822
2019-04-01T01:30:17.079Z,1028.8839
2019-04-01T01:30:28.929Z,1028.8675
2019-04-01T01:30:40.780Z,1028.8741
2019-04-01T01:30:52.686Z,1028.9033
2019-04-01T01:31:04.527Z,1028.8774
2019-04-01T01:31:16.372Z,1028.8967
2019-04-01T01:31:28.227Z,1028.892
2019-04-01T01:31:40.082Z,1028.8643
2019-04-01T01:31:51.936Z,1028.9146
2019-04-01T01:32:03.793Z,1028.8887
2019-04-01T01:32:15.635Z,1028.8709
2019-04-01T01:32:27.477Z,1028.8494
2019-04-01T01:32:39.324Z,1028.8642
2019-04-01T01:32:51.169Z,1028.8431
2019-04-01T01:33:03.021Z,1028.8432
2019-04-01T01:33:15.849Z,1028.8692
2019-04-01T01:33:27.691Z,1028.892
2019-04-01T01:33:39.600Z,1028.8807
2019-04-01T01:33:51.389Z,1028.8464
2019-04-01T01:34:03.238Z,1028.8577
2019-04-01T01:34:15.086Z,1028.8382
2019-04-01T01:34:26.937Z,1028.8627
2019-04-01T01:34:38.780Z,1028.8399
2019-04-01T01:34:50.635Z,1028.8497
2019-04-01T01:35:02.499Z,1028.8723
2019-04-01T01:35:14.341Z,1028.913
2019-04-01T01:35:26.189Z,1028.882
2019-04-01T01:35:38.022Z,1028.8464
2019-04-01T01:35:49.859Z,1028.8494
2019-04-01T01:36:01.714Z,1028.8284
2019-04-01T01:36:13.562Z,1028.8851
2019-04-01T01:36:25.403Z,1028.869
2019-04-01T01:36:37.249Z,1028.8687
2019-04-01T01:36:49.097Z,1028.8754
2019-04-01T01:37:00.937Z,1028.8461
2019-04-01T01:37:12.782Z,1028.8461
2019-04-01T01:37:24.660Z,1028.8199
2019-04-01T01:37:36.505Z,1028.869
2019-04-01T01:37:48.341Z,1028.8787
2019-04-01T01:38:00.183Z,1028.8621
2019-04-01T01:38:12.019Z,1028.885
2019-04-01T01:38:23.869Z,1028.8883
2019-04-01T01:38:35.707Z,1028.8704
2019-04-01T01:38:47.548Z,1028.8426
2019-04-01T01:38:59.382Z,1028.8638
2019-04-01T01:39:11.233Z,1028.8525
2019-04-01T01:39:23.073Z,1028.867
2019-04-01T01:39:34.971Z,1028.8605
2019-04-01T01:39:46.808Z,1028.8573
2019-04-01T01:39:58.666Z,1028.9028
2019-04-01T01:40:10.513Z,1028.8668
2019-04-01T01:40:22.367Z,1028.8718
2019-04-01T01:40:34.205Z,1028.883
2019-04-01T01:40:46.034Z,1028.8782
2019-04-01T01:40:57.866Z,1028.8846
2019-04-01T01:41:09.710Z,1028.8684
2019-04-01T01:41:21.557Z,1028.8666
2019-04-01T01:41:33.398Z,1028.852
2019-04-01T01:41:45.235Z,1028.8375
2019-04-01T01:41:57.074Z,1028.8325
2019-04-01T01:42:08.914Z,1028.8533
2019-04-01T01:42:20.773Z,1028.8145
2019-04-01T01:42:32.634Z,1028.8549
2019-04-01T01:42:44.477Z,1028.8143
2019-04-01T01:42:56.327Z,1028.8616
2019-04-01T01:43:08.177Z,1028.8648
2019-04-01T01:43:20.013Z,1028.8648
2019-04-01T01:43:31.854Z,1028.9022
2019-04-01T01:43:43.699Z,1028.9135
2019-04-01T01:43:55.541Z,1028.8939
2019-04-01T01:44:07.386Z,1028.8826
2019-04-01T01:44:19.224Z,1028.9038
2019-04-01T01:44:31.199Z,1028.8872
2019-04-01T01:44:43.048Z,1028.8729
2019-04-01T01:44:54.889Z,1028.8826
2019-04-01T01:45:06.721Z,1028.8659
2019-04-01T01:45:18.558Z,1028.8757
2019-04-01T01:45:30.402Z,1028.8935
2019-04-01T01:45:42.254Z,1028.9051
2019-04-01T01:45:54.092Z,1028.8902
2019-04-01T01:46:05.936Z,1028.9195
2019-04-01T01:46:17.773Z,1028.8968
2019-04-01T01:46:29.621Z,1028.9163
2019-04-01T01:46:41.465Z,1028.8951
2019-04-01T01:46:53.312Z,1028.9359
2019-04-01T01:47:05.161Z,1028.8513
2019-04-01T01:47:17.006Z,1028.8349
2019-04-01T01:47:28.839Z,1028.8431
2019-04-01T01:47:40.696Z,1028.8612
2019-04-01T01:47:52.539Z,1028.8513
2019-04-01T01:48:04.387Z,1028.827
2019-04-01T01:48:16.231Z,1028.8709
2019-04-01T01:48:28.081Z,1028.8627
2019-04-01T01:48:39.942Z,1028.874
2019-04-01T01:48:51.754Z,1028.8759
2019-04-01T01:49:03.596Z,1028.8757
2019-04-01T01:49:15.438Z,1028.8612
2019-04-01T01:49:27.313Z,1028.8317
2019-04-01T01:49:39.145Z,1028.7847
2019-04-01T01:49:50.987Z,1028.8531
2019-04-01T01:50:02.831Z,1028.8043
2019-04-01T01:50:14.682Z,1028.8334
2019-04-01T01:50:26.511Z,1028.8577
2019-04-01T01:50:38.362Z,1028.8594
2019-04-01T01:50:50.184Z,1028.8303
2019-04-01T01:51:02.018Z,1028.8366
2019-04-01T01:51:13.874Z,1028.8464
2019-04-01T01:51:25.720Z,1028.8205
2019-04-01T01:51:37.552Z,1028.8757
2019-04-01T01:51:49.385Z,1028.8204
2019-04-01T01:52:01.230Z,1028.8415
2019-04-01T01:52:13.059Z,1028.8352
2019-04-01T01:52:24.910Z,1028.8123
2019-04-01T01:52:36.755Z,1028.8352
2019-04-01T01:52:48.592Z,1028.8205
2019-04-01T01:53:00.433Z,1028.835
2019-04-01T01:53:12.283Z,1028.8497
2019-04-01T01:53:25.113Z,1028.8692
2019-04-01T01:53:36.963Z,1028.8302
2019-04-01T01:53:48.789Z,1028.8253
2019-04-01T01:54:00.625Z,1028.8365
2019-04-01T01:54:12.463Z,1028.8511
2019-04-01T01:54:24.304Z,1028.8562
2019-04-01T01:54:36.146Z,1028.8154
2019-04-01T01:54:47.985Z,1028.7862
2019-04-01T01:54:59.850Z,1028.8171
2019-04-01T01:55:11.687Z,1028.8171
2019-04-01T01:55:23.527Z,1028.8073
2019-04-01T01:55:35.372Z,1028.8059
2019-04-01T01:55:47.218Z,1028.8139
2019-04-01T01:55:59.066Z,1028.814
2019-04-01T01:56:10.909Z,1028.8123
2019-04-01T01:56:22.757Z,1028.809
2019-04-01T01:56:34.592Z,1028.7943
2019-04-01T01:56:46.465Z,1028.8822
2019-04-01T01:56:58.303Z,1028.8221
2019-04-01T01:57:10.150Z,1028.7926
2019-04-01T01:57:21.987Z,1028.809
2019-04-01T01:57:33.831Z,1028.8352
2019-04-01T01:57:45.683Z,1028.8056
2019-04-01T01:57:57.503Z,1028.7911
2019-04-01T01:58:09.348Z,1028.8284
2019-04-01T01:58:21.185Z,1028.8123
2019-04-01T01:58:33.029Z,1028.8333
2019-04-01T01:58:44.877Z,1028.8074
2019-04-01T01:58:57.703Z,1028.7797
2019-04-01T01:59:09.541Z,1028.778
2019-04-01T01:59:21.391Z,1028.7879
2019-04-01T01:59:33.227Z,1028.827
2019-04-01T01:59:45.067Z,1028.7734
2019-04-01T01:59:56.923Z,1028.7714
2019-04-01T02:00:08.831Z,1028.739
2019-04-01T02:00:20.648Z,1028.7797
2019-04-01T02:00:32.501Z,1028.7292
2019-04-01T02:00:44.352Z,1028.7407
2019-04-01T02:00:56.200Z,1028.7032
2019-04-01T02:01:08.041Z,1028.7585
2019-04-01T02:01:19.870Z,1028.682
2019-04-01T02:01:31.708Z,1028.7374
2019-04-01T02:01:43.551Z,1028.7308
2019-04-01T02:01:55.398Z,1028.7471
2019-04-01T02:02:07.242Z,1028.6739
2019-04-01T02:02:19.076Z,1028.6578
2019-04-01T02:02:30.917Z,1028.6755
2019-04-01T02:02:42.756Z,1028.7373
2019-04-01T02:02:54.601Z,1028.7308
2019-04-01T02:03:06.431Z,1028.7504
2019-04-01T02:03:18.277Z,1028.6363
2019-04-01T02:03:30.114Z,1028.6834
2019-04-01T02:03:41.982Z,1028.7307
2019-04-01T02:03:53.821Z,1028.7325
2019-04-01T02:04:05.660Z,1028.6981
2019-04-01T02:04:17.506Z,1028.6348
2019-04-01T02:04:29.341Z,1028.6704
2019-04-01T02:04:41.193Z,1028.7045
2019-04-01T02:04:53.029Z,1028.664
2019-04-01T02:05:04.866Z,1028.6784
2019-04-01T02:05:16.737Z,1028.664
2019-04-01T02:05:28.586Z,1028.6378
2019-04-01T02:05:40.433Z,1028.6541
2019-04-01T02:05:52.268Z,1028.6718
2019-04-01T02:06:04.121Z,1028.6719
2019-04-01T02:06:15.986Z,1028.6851
2019-04-01T02:06:27.825Z,1028.6898
2019-04-01T02:06:39.662Z,1028.7239
2019-04-01T02:06:51.502Z,1028.6428
2019-04-01T02:07:03.418Z,1028.6915
2019-04-01T02:07:15.199Z,1028.68
2019-04-01T02:07:27.042Z,1028.6474
2019-04-01T02:07:38.891Z,1028.6638
2019-04-01T02:07:50.723Z,1028.68
2019-04-01T02:08:02.569Z,1028.6701
2019-04-01T02:08:14.397Z,1028.6619
2019-04-01T02:08:26.244Z,1028.6977
2019-04-01T02:08:38.088Z,1028.6993
2019-04-01T02:08:50.928Z,1028.6848
2019-04-01T02:09:02.771Z,1028.6846
2019-04-01T02:09:14.603Z,1028.706
2019-04-01T02:09:26.441Z,1028.6864
2019-04-01T02:09:38.273Z,1028.6717
2019-04-01T02:09:50.112Z,1028.6995
2019-04-01T02:10:01.953Z,1028.6424
2019-04-01T02:10:13.833Z,1028.7141
2019-04-01T02:10:25.679Z,1028.7124
2019-04-01T02:10:37.512Z,1028.6896
2019-04-01T02:10:49.362Z,1028.6929
2019-04-01T02:11:01.206Z,1028.6928
2019-04-01T02:11:13.044Z,1028.6992
2019-04-01T02:11:24.884Z,1028.6878
2019-04-01T02:11:36.719Z,1028.665
2019-04-01T02:11:48.564Z,1028.6519
2019-04-01T02:12:00.405Z,1028.6505
2019-04-01T02:12:12.249Z,1028.6374
2019-04-01T02:12:24.091Z,1028.6586
2019-04-01T02:12:35.935Z,1028.6374
2019-04-01T02:12:47.771Z,1028.6342
2019-04-01T02:12:59.606Z,1028.6409
2019-04-01T02:13:11.448Z,1028.6243
2019-04-01T02:13:23.285Z,1028.6162
2019-04-01T02:13:35.124Z,1028.6293
2019-04-01T02:13:46.960Z,1028.6196
2019-04-01T02:13:58.795Z,1028.6326
2019-04-01T02:14:10.632Z,1028.5903
2019-04-01T02:14:22.475Z,1028.6406
2019-04-01T02:14:34.313Z,1028.6032
2019-04-01T02:14:46.150Z,1028.5758
2019-04-01T02:14:57.991Z,1028.6212
2019-04-01T02:15:09.837Z,1028.6406
2019-04-01T02:15:21.711Z,1028.6064
2019-04-01T02:15:33.551Z,1028.5787
2019-04-01T02:15:45.392Z,1028.5659
2019-04-01T02:15:57.237Z,1028.6049